Roseboom, NY (13450)

8:54 AM EST on January 29, 2015 (GMT -0500)
Roseboom Hill | Change Station
CLOSE
Current Station
Personal Weather Station
Location: Cooperstown, NY
Elevation: 1900 ft
Nearby Weather Stations
Active Advisory: Winter Weather Advisory

Elev 1900 ft 42.74 °N, 74.81 °W | Updated 18 minutes ago

Partly Cloudy
Partly Cloudy
11.3 °F
Feels Like 11 °F
N
1.0
Wind Variable Wind from SSW
Gusts 3.0 mph

Today
High -- | Low -- °F
--% Chance of Precip.
Yesterday
High -- | Low -- °F
Precip. -- in
7:16 AM 5:07 PM
Waxing Gibbous, 74% visible
Pressure 30.31 in
Visibility 10.0 miles
Clouds Clear
Windchill 11 °F
Dew Point -5 °F
Humidity 47%
Rainfall -999.00 in
Snow Depth Not available.
UV 0 out of 12
Pollen .10 out of 12
Air Quality Not available.
Flu Activity Not available.
METAR KRME 291253Z 12008KT 10SM CLR M17/M21 A3028 RMK AO2 SLP264 T11671211

More Conditions Fewer Conditions

Pressure 30.31 in
Visibility 10.0 miles
Clouds Clear
Windchill 11 °F
Dew Point -5 °F
Humidity 47%
Rainfall -999.00 in
Snow Depth Not available.
UV 0 out of 12
Pollen .10 out of 12
Air Quality Not available.
Flu Activity Not available.
METAR KRME 291253Z 12008KT 10SM CLR M17/M21 A3028 RMK AO2 SLP264 T11671211

More Conditions Fewer Conditions

10-Day Weather Forecast

Almanac

Astronomy

Jan. 29, 2015 Rise Set
Actual Time
Civil Twilight
Nautical Twilight
Astronomical Twilight
Moon
Length of Visible Light
Length of Day
Tomorrow will be .
, % of the Moon is Illuminated

Today's Extremes

State Highs State Lows

Community

WunderPhotos

Upload Photos

1,791,428 photos uploaded!

WunderBlogs® & News

Nearby

Air Quality

  Air Quality AQ Index Pollutant
Not available.

Snow Depth

Station Depth Elevation

Earthquake Activity

City Distance Mag. Time & Date
Minimum magnitude displayed is 2.5.

Coastal Water Temperatures

Place Temperature

Nearby Weather Stations